»·PEaware :: CGVZB PAOM-PAOT

CGVZB :: PAOM-PAOT

FLIGHT INFORMATION

Flight Status: Arrived
Operator: Unknown
More flights by this operator :: More flights under this callsign
Pilot: Alan S. (10569)
Aircraft: BEECH AIRCRAFT BONANZA
(BE35)
More flights by this aircraft type
Origin: PAOM Nome
United States
Destination: PAOT Wien Meml
United States
More flights between these airports :: More routes between these airports
Route: JIPAK TNC PAIW
File this flight plan on PilotEdge
Remarks:
Altitude:
(Current/Filed)
6,000ft
Speed:
(Current/Filed)
160kts
Departed: 16-Jul-17 08:54 PM
Arrived: 16-Jul-17 11:32 PM
Distance/Time
Traveled:
159nm/2:38
Distance/Time
To Go:
Arrived

Flight Plot

Page will automatically refresh every two minutes.

Flight plan parsing failed; only flown route is shown


Map Options




Map Legend


Flown Route
Filed Route
Departure Airport
Arrival Airport
Navaid (VOR, NDB)
Fix

Horizontal Profiles

Position Reports

Time Latitude Longitude Heading Altitude Ground
Speed
16-Jul-17 20:46 64.514051 -165.434919 305 30ft 0kts
16-Jul-17 20:47 64.514051 -165.434919 305 30ft 0kts
16-Jul-17 20:48 64.514051 -165.434919 305 30ft 0kts
16-Jul-17 20:49 64.514051 -165.434919 305 30ft 0kts
16-Jul-17 20:50 64.514051 -165.434919 305 30ft 0kts
16-Jul-17 20:51 64.514051 -165.434919 305 30ft 0kts
16-Jul-17 20:52 64.514052 -165.434919 305 30ft 0kts
16-Jul-17 20:53 64.514087 -165.435044 293 30ft 1kts
16-Jul-17 20:54 64.513899 -165.437162 272 30ft 7kts
16-Jul-17 20:55 64.511682 -165.450978 289 30ft 35kts
16-Jul-17 20:56 64.514001 -165.466123 111 30ft 8kts
16-Jul-17 20:57 64.508445 -165.433102 113 399ft 79kts
16-Jul-17 20:58 64.518076 -165.398401 347 1125ft 106kts
16-Jul-17 20:59 64.536758 -165.465975 294 1276ft 145kts
16-Jul-17 21:00 64.545991 -165.556054 277 1788ft 143kts
16-Jul-17 21:01 64.551082 -165.647228 275 2359ft 142kts
16-Jul-17 21:02 64.568842 -165.719583 324 2974ft 138kts
16-Jul-17 21:03 64.598889 -165.776938 321 3649ft 141kts
16-Jul-17 21:04 64.629494 -165.835402 320 4294ft 144kts
16-Jul-17 21:05 64.660876 -165.895497 319 4963ft 147kts
16-Jul-17 21:06 64.692664 -165.956569 318 5641ft 148kts
16-Jul-17 21:07 64.725431 -166.019899 317 5985ft 165kts
16-Jul-17 21:08 64.762168 -166.091279 316 5978ft 177kts
16-Jul-17 21:09 64.800479 -166.165973 316 5975ft 181kts
16-Jul-17 21:10 64.839431 -166.242285 316 5974ft 183kts
16-Jul-17 21:11 64.878434 -166.318852 316 5974ft 183kts
16-Jul-17 21:12 64.917621 -166.396030 316 5974ft 184kts
16-Jul-17 21:13 64.956882 -166.473656 316 5974ft 184kts
16-Jul-17 21:14 64.996043 -166.551444 316 5976ft 184kts
16-Jul-17 21:15 65.035180 -166.629518 317 5980ft 184kts
16-Jul-17 21:16 65.074350 -166.707847 316 5983ft 184kts
16-Jul-17 21:17 65.113126 -166.787646 310 5979ft 183kts
16-Jul-17 21:18 65.148255 -166.874218 310 5979ft 182kts
16-Jul-17 21:19 65.183225 -166.961130 309 5980ft 181kts
16-Jul-17 21:20 65.217978 -167.047807 309 5980ft 181kts
16-Jul-17 21:21 65.252829 -167.134732 308 5961ft 182kts
16-Jul-17 21:22 65.287794 -167.222479 307 5941ft 183kts
16-Jul-17 21:23 65.322729 -167.311156 306 5925ft 183kts
16-Jul-17 21:24 65.357626 -167.399814 307 5925ft 182kts
16-Jul-17 21:25 65.392461 -167.488482 307 5925ft 182kts
16-Jul-17 21:26 65.427115 -167.577040 307 5926ft 182kts
16-Jul-17 21:27 65.461844 -167.665938 306 5961ft 180kts
16-Jul-17 21:28 65.495762 -167.753413 305 6018ft 179kts
16-Jul-17 21:29 65.530347 -167.843139 306 5834ft 191kts
16-Jul-17 21:30 65.571138 -167.928043 346 5243ft 207kts
16-Jul-17 21:31 65.628096 -167.951833 349 4655ft 209kts
16-Jul-17 21:32 65.685756 -167.974945 350 4063ft 210kts
16-Jul-17 21:33 65.743434 -167.998377 350 3473ft 208kts
16-Jul-17 21:34 65.794062 -168.019454 351 2828ft 158kts
16-Jul-17 21:35 65.833626 -168.055442 333 2602ft 161kts
16-Jul-17 21:36 65.876974 -168.102568 359 2586ft 177kts
16-Jul-17 21:37 65.882788 -168.044158 181 2594ft 117kts
16-Jul-17 21:38 65.851268 -168.057344 184 2592ft 112kts
16-Jul-17 21:39 65.821234 -168.061958 178 2587ft 102kts
16-Jul-17 21:40 65.792454 -168.064098 178 2235ft 105kts
16-Jul-17 21:41 65.764219 -168.066481 169 1686ft 97kts
16-Jul-17 21:42 65.740916 -168.062433 174 1685ft 79kts
16-Jul-17 21:43 65.721501 -168.062410 171 1702ft 71kts
16-Jul-17 21:44 65.700764 -168.067193 180 1359ft 74kts
16-Jul-17 21:45 65.680313 -168.074087 179 1002ft 73kts
16-Jul-17 21:46 65.659944 -168.081473 180 614ft 77kts
16-Jul-17 21:47 65.639158 -168.089006 181 233ft 71kts
16-Jul-17 21:48 65.623031 -168.094821 185 26ft 27kts
16-Jul-17 21:49 65.620421 -168.095820 3 26ft 6kts
16-Jul-17 21:50 65.621672 -168.095955 340 26ft 0kts
16-Jul-17 21:51 65.621672 -168.095955 340 26ft 0kts
16-Jul-17 21:52 65.621672 -168.095955 340 26ft 0kts
16-Jul-17 21:53 65.621672 -168.095955 340 26ft 0kts
16-Jul-17 21:54 65.621672 -168.095955 340 26ft 0kts
16-Jul-17 21:55 65.621672 -168.095955 340 26ft 0kts
16-Jul-17 21:56 65.635408 -168.090350 182 162ft 71kts
16-Jul-17 21:57 65.643160 -168.087599 182 316ft 75kts
16-Jul-17 21:58 65.624945 -168.094229 189 28ft 43kts
16-Jul-17 21:59 65.622641 -168.095270 27 26ft 7kts
16-Jul-17 22:00 65.624564 -168.094344 18 27ft 6kts
16-Jul-17 22:01 65.626403 -168.093679 16 27ft 7kts
16-Jul-17 22:02 65.627866 -168.093043 135 26ft 4kts
16-Jul-17 22:03 65.616240 -168.097218 180 420ft 61kts
16-Jul-17 22:04 65.622344 -168.139306 325 1076ft 119kts
16-Jul-17 22:05 65.647644 -168.119369 53 1873ft 97kts
16-Jul-17 22:06 65.662737 -168.071206 80 2500ft 93kts
16-Jul-17 22:07 65.681070 -168.012646 59 2698ft 124kts
16-Jul-17 22:08 65.698931 -167.951087 81 3010ft 122kts
16-Jul-17 22:09 65.715871 -167.866209 70 3007ft 149kts
16-Jul-17 22:10 65.737473 -167.776841 67 3005ft 156kts
16-Jul-17 22:11 65.760235 -167.685319 66 3005ft 159kts
16-Jul-17 22:12 65.783223 -167.592764 66 3004ft 160kts
16-Jul-17 22:13 65.806365 -167.498991 66 3004ft 161kts
16-Jul-17 22:14 65.829516 -167.404709 66 3004ft 162kts
16-Jul-17 22:15 65.852532 -167.310586 67 3005ft 163kts
16-Jul-17 22:16 65.875588 -167.215533 66 3017ft 161kts
16-Jul-17 22:17 65.898137 -167.121937 65 3037ft 158kts
16-Jul-17 22:18 65.920179 -167.030315 63 3057ft 154kts
16-Jul-17 22:19 65.942088 -166.940311 63 3058ft 153kts
16-Jul-17 22:20 65.963754 -166.849553 63 2820ft 156kts
16-Jul-17 22:21 65.985562 -166.757808 62 2493ft 152kts
16-Jul-17 22:22 66.006516 -166.669668 61 2495ft 147kts
16-Jul-17 22:23 66.026949 -166.583294 61 2496ft 145kts
16-Jul-17 22:24 66.047046 -166.498070 61 2496ft 144kts
16-Jul-17 22:25 66.067019 -166.412974 61 2496ft 143kts
16-Jul-17 22:26 66.087911 -166.323352 62 2153ft 163kts
16-Jul-17 22:27 66.112207 -166.227983 33 1978ft 162kts
16-Jul-17 22:28 66.152974 -166.189786 21 1988ft 151kts
16-Jul-17 22:29 66.191381 -166.155005 21 1989ft 143kts
16-Jul-17 22:30 66.228235 -166.121683 21 1987ft 136kts
16-Jul-17 22:31 66.258091 -166.128598 256 1695ft 133kts
16-Jul-17 22:32 66.234557 -166.096437 86 1109ft 130kts
16-Jul-17 22:33 66.246582 -166.025234 64 1057ft 91kts
16-Jul-17 22:34 66.258104 -166.047603 239 364ft 88kts
16-Jul-17 22:35 66.249380 -166.089712 192 20ft 10kts
16-Jul-17 22:36 66.250093 -166.083849 64 17ft 23kts
16-Jul-17 22:37 66.251858 -166.075041 65 13ft 20kts
16-Jul-17 22:38 66.252136 -166.073871 21 13ft 0kts
16-Jul-17 22:39 66.252136 -166.073871 21 13ft 0kts
16-Jul-17 22:40 66.252136 -166.073871 21 13ft 0kts
16-Jul-17 22:41 66.252136 -166.073871 21 13ft 0kts
16-Jul-17 22:42 66.252136 -166.073871 21 13ft 0kts
16-Jul-17 22:43 66.252136 -166.073871 21 13ft 0kts
16-Jul-17 22:44 66.252136 -166.073871 21 13ft 0kts
16-Jul-17 22:45 66.252136 -166.073871 21 13ft 0kts
16-Jul-17 22:46 66.252136 -166.073871 21 13ft 0kts
16-Jul-17 22:47 66.252472 -166.074161 312 13ft 7kts
16-Jul-17 22:48 66.245753 -166.111374 244 369ft 96kts
16-Jul-17 22:49 66.229283 -166.109853 91 1195ft 102kts
16-Jul-17 22:50 66.243329 -166.029037 69 1314ft 148kts
16-Jul-17 22:51 66.259223 -165.944306 70 2229ft 115kts
16-Jul-17 22:52 66.271056 -165.867602 71 2855ft 123kts
16-Jul-17 22:53 66.283393 -165.786822 72 3459ft 127kts
16-Jul-17 22:54 66.296007 -165.703602 72 4031ft 132kts
16-Jul-17 22:55 66.309029 -165.617550 72 4646ft 133kts
16-Jul-17 22:56 66.322279 -165.529129 73 5022ft 146kts
16-Jul-17 22:57 66.337135 -165.429141 72 5019ft 159kts
16-Jul-17 22:58 66.352805 -165.323975 73 5018ft 164kts
16-Jul-17 22:59 66.368824 -165.215814 73 5018ft 167kts
16-Jul-17 23:00 66.384892 -165.106579 73 5018ft 168kts
16-Jul-17 23:01 66.400925 -164.996755 73 5018ft 169kts
16-Jul-17 23:02 66.416962 -164.886323 73 5020ft 169kts
16-Jul-17 23:03 66.432863 -164.776341 73 5031ft 169kts
16-Jul-17 23:04 66.448805 -164.665164 73 5042ft 170kts
16-Jul-17 23:05 66.464787 -164.552678 72 5036ft 172kts
16-Jul-17 23:06 66.480956 -164.438771 72 5036ft 174kts
16-Jul-17 23:07 66.496992 -164.324926 73 5036ft 174kts
16-Jul-17 23:08 66.513057 -164.210041 73 5036ft 174kts
16-Jul-17 23:09 66.528968 -164.095540 73 5036ft 174kts
16-Jul-17 23:10 66.544860 -163.980385 73 5037ft 174kts
16-Jul-17 23:11 66.560585 -163.865755 73 5038ft 173kts
16-Jul-17 23:12 66.575991 -163.753306 74 5042ft 168kts
16-Jul-17 23:13 66.590908 -163.642953 75 5045ft 165kts
16-Jul-17 23:14 66.605590 -163.533720 74 5045ft 164kts
16-Jul-17 23:15 66.620160 -163.424734 75 5045ft 163kts
16-Jul-17 23:16 66.634581 -163.316113 75 5046ft 163kts
16-Jul-17 23:17 66.648884 -163.207682 75 5046ft 163kts
16-Jul-17 23:18 66.663154 -163.098749 75 5046ft 163kts
16-Jul-17 23:19 66.677021 -162.992662 75 5043ft 152kts
16-Jul-17 23:20 66.689662 -162.895314 76 5042ft 138kts
16-Jul-17 23:21 66.714882 -162.838015 16 4663ft 130kts
16-Jul-17 23:22 66.740627 -162.888418 298 3860ft 122kts
16-Jul-17 23:23 66.759446 -162.960068 310 3070ft 125kts
16-Jul-17 23:24 66.786814 -163.015580 326 2551ft 129kts
16-Jul-17 23:25 66.820644 -163.050401 338 2371ft 127kts
16-Jul-17 23:26 66.854920 -163.064683 2 1874ft 126kts
16-Jul-17 23:27 66.891145 -163.062407 2 1487ft 136kts
16-Jul-17 23:28 66.922683 -163.036885 91 1518ft 113kts
16-Jul-17 23:29 66.912571 -162.966996 106 1542ft 105kts
16-Jul-17 23:30 66.907793 -162.895775 103 1627ft 103kts
16-Jul-17 23:31 66.902877 -162.819891 99 1587ft 118kts
16-Jul-17 23:32 66.897640 -162.747513 103 1151ft 90kts
16-Jul-17 23:33 66.894244 -162.687541 102 672ft 87kts
16-Jul-17 23:34 66.890741 -162.629002 100 212ft 81kts
16-Jul-17 23:35 66.889153 -162.594568 322 19ft 13kts
16-Jul-17 23:36 66.890680 -162.602867 332 20ft 5kts
16-Jul-17 23:37 66.890963 -162.603750 225 20ft 0kts
16-Jul-17 23:38 66.890963 -162.603750 225 20ft 0kts
16-Jul-17 23:39 66.890963 -162.603750 225 20ft 0kts
16-Jul-17 23:40 66.890963 -162.603750 225 20ft 0kts
16-Jul-17 23:41 66.901154 -162.790372 104 1502ft 107kts
16-Jul-17 23:42 66.896535 -162.724626 100 970ft 83kts
16-Jul-17 23:43 66.892942 -162.665155 102 507ft 83kts
16-Jul-17 23:44 66.889472 -162.608948 106 36ft 75kts
16-Jul-17 23:45 66.889839 -162.597592 279 20ft 15kts
16-Jul-17 23:46 66.890996 -162.603480 289 20ft 0kts

Navigation Log

Ident Type
Flight plan parsing failed, navigation log unavailable